Time;durP1;ratioP1;P1;durP2;ratioP2;P2;SDS_P1;SDS_P2;PMS_P1;PMS_P2;Temp;Humidity;BMP_temperature;BMP_pressure;BME280_temperature;BME280_humidity;BME280_pressure;Samples;Min_cycle;Max_cycle;Signal;HPM_P1;HPM_P2
2022/08/23 00:01:11;;;;;;;23.67;8.02;;;20.00;99.90;;;;;;4804670;29;20086;-72
2022/08/23 00:03:36;;;;;;;26.17;8.45;;;19.40;99.90;;;;;;4805983;29;20058;-72
2022/08/23 00:06:03;;;;;;;26.33;8.23;;;;;;;;;;4804566;29;20046;-72
2022/08/23 00:08:29;;;;;;;28.92;8.45;;;;;;;;;;4804488;29;20043;-72
2022/08/23 00:10:55;;;;;;;23.40;8.77;;;18.90;99.90;;;;;;4804541;29;20069;-72
2022/08/23 00:13:22;;;;;;;31.55;10.10;;;18.60;99.40;;;;;;4804070;29;20556;-72
2022/08/23 00:15:47;;;;;;;26.55;10.45;;;18.60;99.90;;;;;;4804290;29;20035;-72
2022/08/23 00:18:15;;;;;;;29.88;10.68;;;;;;;;;;4804037;29;20251;-72
2022/08/23 00:20:41;;;;;;;34.67;11.85;;;17.60;99.90;;;;;;4804062;29;20131;-72
2022/08/23 00:23:07;;;;;;;34.50;11.40;;;17.40;99.90;;;;;;4804040;29;20484;-72
2022/08/23 00:25:33;;;;;;;29.20;11.63;;;;;;;;;;4788631;29;20054;-72
2022/08/23 00:27:59;;;;;;;28.00;12.10;;;18.50;99.90;;;;;;4804375;29;20043;-72
2022/08/23 00:30:25;;;;;;;29.67;12.52;;;;;;;;;;4788809;29;20408;-72
2022/08/23 00:32:52;;;;;;;26.08;12.75;;;;;;;;;;4789200;29;20379;-72
2022/08/23 00:35:19;;;;;;;29.05;13.13;;;19.50;99.90;;;;;;4804044;29;20043;-72
2022/08/23 00:37:46;;;;;;;25.92;11.63;;;18.60;99.90;;;;;;4804031;29;20113;-72
2022/08/23 00:40:14;;;;;;;28.15;11.95;;;19.70;99.90;;;;;;4789359;29;20051;-68
2022/08/23 00:48:21;;;;;;;35.85;13.40;;;19.40;99.90;;;;;;4803869;29;20117;-68
2022/08/23 00:50:51;;;;;;;31.48;13.77;;;17.60;99.90;;;;;;4801272;29;20058;-68
2022/08/23 00:53:26;;;;;;;29.92;13.93;;;19.60;99.90;;;;;;4832686;29;20130;-68
2022/08/23 00:55:56;;;;;;;32.10;12.98;;;18.70;99.90;;;;;;4803951;29;20047;-68
2022/08/23 00:58:23;;;;;;;29.52;13.35;;;17.60;99.90;;;;;;4788748;29;20055;-68
2022/08/23 01:00:50;;;;;;;30.33;13.93;;;19.80;99.90;;;;;;4827432;29;20062;-68
2022/08/23 01:03:18;;;;;;;37.42;13.60;;;18.70;99.90;;;;;;4831133;29;20058;-68
2022/08/23 01:05:55;;;;;;;31.00;12.77;;;19.40;99.90;;;;;;4804185;29;20053;-68
2022/08/23 01:08:23;;;;;;;33.78;13.38;;;19.80;99.90;;;;;;4803497;29;20078;-72
2022/08/23 01:11:10;;;;;;;25.83;12.13;;;17.50;99.90;;;;;;4788851;29;20043;-71
2022/08/23 01:13:50;;;;;;;34.45;11.95;;;18.60;99.90;;;;;;4803313;29;20081;-72
2022/08/23 01:16:20;;;;;;;28.58;12.20;;;19.00;99.90;;;;;;4833062;29;20039;-72
2022/08/23 01:18:47;;;;;;;31.60;12.35;;;18.00;99.90;;;;;;4801390;29;20510;-71
2022/08/23 01:21:24;;;;;;;30.05;12.55;;;19.30;99.90;;;;;;4830629;29;20047;-71
2022/08/23 01:23:55;;;;;;;33.28;12.93;;;17.40;99.90;;;;;;4802552;29;20039;-72
2022/08/23 01:26:22;;;;;;;29.42;12.70;;;18.80;99.90;;;;;;4832860;29;20035;-72
2022/08/23 01:28:48;;;;;;;25.65;12.57;;;;;;;;;;4803097;29;20145;-72
2022/08/23 01:31:17;;;;;;;31.20;13.52;;;17.80;99.90;;;;;;4803832;29;20102;-71
2022/08/23 01:33:46;;;;;;;30.50;13.98;;;19.60;99.90;;;;;;4803314;29;20480;-72
2022/08/23 01:36:14;;;;;;;30.42;14.55;;;18.90;99.90;;;;;;4804527;29;20047;-72
2022/08/23 01:38:40;;;;;;;37.42;15.27;;;19.20;99.90;;;;;;4804551;29;20073;-72
2022/08/23 01:41:06;;;;;;;32.28;15.77;;;17.50;99.90;;;;;;4806846;29;20488;-72
2022/08/23 01:43:32;;;;;;;41.08;16.40;;;19.50;99.90;;;;;;4806779;29;20046;-72
2022/08/23 01:46:11;;;;;;;34.63;16.05;;;17.40;99.90;;;;;;4821301;29;20043;-72
2022/08/23 01:48:37;;;;;;;30.65;16.23;;;19.10;99.90;;;;;;4805815;29;20460;-72
2022/08/23 01:51:03;;;;;;;39.58;15.63;;;;;;;;;;4806569;29;20543;-72
2022/08/23 01:53:29;;;;;;;30.83;17.10;;;;;;;;;;4806817;29;20064;-72
2022/08/23 01:55:55;;;;;;;37.47;17.35;;;17.10;99.90;;;;;;4806916;29;20079;-72
2022/08/23 01:58:21;;;;;;;36.97;17.10;;;;;;;;;;4776398;29;20054;-72
2022/08/23 02:00:47;;;;;;;35.75;16.63;;;;;;;;;;4806767;29;20042;-72
2022/08/23 02:03:14;;;;;;;39.00;17.02;;;;;;;;;;4806394;29;20042;-71
2022/08/23 02:05:41;;;;;;;37.80;17.30;;;18.60;99.90;;;;;;4806607;29;20038;-72
2022/08/23 02:10:53;;;;;;;38.65;18.05;;;18.30;99.90;;;;;;4805287;29;20118;-72
2022/08/23 02:13:19;;;;;;;35.95;18.83;;;;;;;;;;4806280;29;20051;-71
2022/08/23 02:15:49;;;;;;;39.50;18.08;;;19.10;99.90;;;;;;4806229;29;20095;-72
2022/08/23 02:18:16;;;;;;;29.85;17.27;;;;;;;;;;4832012;29;20053;-72
2022/08/23 02:20:47;;;;;;;38.78;17.23;;;19.00;99.90;;;;;;4791333;29;20564;-72
2022/08/23 02:23:13;;;;;;;41.22;18.60;;;17.30;99.90;;;;;;4804147;29;20057;-72
2022/08/23 02:25:39;;;;;;;41.28;18.63;;;18.70;99.90;;;;;;4806106;29;20125;-72
2022/08/23 02:28:05;;;;;;;30.67;17.90;;;;;;;;;;4806008;29;20050;-71
2022/08/23 02:30:31;;;;;;;33.60;17.98;;;;;;;;;;4806056;29;20042;-72
2022/08/23 02:32:58;;;;;;;41.53;18.17;;;;;;;;;;4805568;29;20088;-71
2022/08/23 02:35:24;;;;;;;40.38;18.02;;;17.20;99.90;;;;;;4806052;29;20049;-72
2022/08/23 02:37:51;;;;;;;38.35;18.95;;;;;;;;;;4805987;29;20050;-72
2022/08/23 02:40:17;;;;;;;42.40;18.75;;;16.70;99.90;;;;;;4806105;29;20073;-71
2022/08/23 02:42:43;;;;;;;38.28;20.27;;;18.70;99.90;;;;;;4806032;29;20035;-72
2022/08/23 02:45:10;;;;;;;37.50;19.33;;;18.40;99.90;;;;;;4806119;29;20466;-71
2022/08/23 02:47:36;;;;;;;38.60;18.92;;;;;;;;;;4805582;29;20066;-72
2022/08/23 02:50:06;;;;;;;40.13;19.08;;;17.80;99.90;;;;;;4805745;29;20047;-72
2022/08/23 02:52:33;;;;;;;39.72;20.27;;;17.60;99.90;;;;;;4789886;29;20365;-72
2022/08/23 02:54:59;;;;;;;53.97;20.30;;;;;;;;;;4835305;29;20038;-72
2022/08/23 02:57:25;;;;;;;41.20;18.70;;;17.60;99.90;;;;;;4805567;29;20078;-71
2022/08/23 02:59:52;;;;;;;32.50;18.98;;;;;;;;;;4832978;29;20058;-72
2022/08/23 03:02:18;;;;;;;39.55;19.55;;;;;;;;;;4805308;29;20106;-72
2022/08/23 03:04:44;;;;;;;43.08;18.70;;;17.00;99.90;;;;;;4790385;29;20123;-71
2022/08/23 03:07:10;;;;;;;35.75;20.05;;;;;;;;;;4805061;29;20077;-72
2022/08/23 03:09:36;;;;;;;38.85;18.60;;;;;;;;;;4805483;29;20529;-71
2022/08/23 03:12:02;;;;;;;36.28;19.42;;;18.70;99.90;;;;;;4790475;29;20034;-72
2022/08/23 03:14:28;;;;;;;37.70;17.73;;;;;;;;;;4805423;29;20035;-72
2022/08/23 03:16:54;;;;;;;33.30;18.42;;;17.40;99.90;;;;;;4805361;29;20084;-72
2022/08/23 03:19:21;;;;;;;38.35;18.85;;;;;;;;;;4805215;29;20082;-72
2022/08/23 03:21:47;;;;;;;39.42;18.63;;;16.60;99.90;;;;;;4790080;29;20047;-72
2022/08/23 03:24:13;;;;;;;38.42;19.08;;;;;;;;;;4807734;29;20122;-72
2022/08/23 03:26:44;;;;;;;44.97;18.48;;;18.50;99.90;;;;;;4806446;29;20031;-72
2022/08/23 03:29:10;;;;;;;34.90;17.33;;;;;;;;;;4824407;29;20500;-72
2022/08/23 03:31:36;;;;;;;34.20;18.70;;;18.10;99.90;;;;;;4790444;29;20288;-72
2022/08/23 03:34:03;;;;;;;37.15;19.90;;;17.60;99.90;;;;;;4805321;29;20503;-72
2022/08/23 03:36:29;;;;;;;37.17;18.80;;;;;;;;;;4814518;29;20059;-72
2022/08/23 03:38:55;;;;;;;39.72;18.27;;;;;;;;;;4804888;29;20096;-72
2022/08/23 03:41:21;;;;;;;49.35;20.38;;;;;;;;;;4790365;29;20043;-72
2022/08/23 03:43:47;;;;;;;38.72;20.33;;;;;;;;;;4804803;29;20050;-72
2022/08/23 03:46:21;;;;;;;32.33;18.90;;;;;;;;;;4804778;29;20137;-72
2022/08/23 03:48:51;;;;;;;32.35;19.70;;;;;;;;;;4804621;29;20047;-72
2022/08/23 03:51:18;;;;;;;33.40;19.40;;;17.30;99.90;;;;;;4789892;29;20050;-72
2022/08/23 03:53:46;;;;;;;43.53;20.42;;;;;;;;;;4804296;29;20047;-72
2022/08/23 03:56:25;;;;;;;32.17;18.52;;;17.50;99.90;;;;;;4789966;29;20066;-72
2022/08/23 03:58:52;;;;;;;36.03;18.52;;;17.30;99.90;;;;;;4803631;29;20062;-72
2022/08/23 04:01:18;;;;;;;39.08;20.63;;;;;;;;;;4834133;29;20046;-72
2022/08/23 04:03:44;;;;;;;38.15;20.33;;;16.20;99.90;;;;;;4804687;29;20050;-72
2022/08/23 04:06:11;;;;;;;36.90;20.80;;;18.20;99.90;;;;;;4825715;29;20125;-72
2022/08/23 04:08:37;;;;;;;37.13;19.25;;;;;;;;;;4804266;29;20051;-71
2022/08/23 04:11:03;;;;;;;37.92;20.52;;;;;;;;;;4789519;29;20043;-72
2022/08/23 04:13:29;;;;;;;40.22;19.23;;;17.50;99.90;;;;;;4805325;29;20031;-72
2022/08/23 04:15:56;;;;;;;41.28;20.33;;;17.30;99.90;;;;;;4804105;29;20046;-72
2022/08/23 04:18:22;;;;;;;46.47;20.45;;;16.30;99.90;;;;;;4805196;29;20125;-72
2022/08/23 04:20:49;;;;;;;35.92;19.83;;;17.20;99.90;;;;;;4804396;29;20184;-73
2022/08/23 04:23:15;;;;;;;37.38;20.00;;;;;;;;;;4821551;29;20051;-72
2022/08/23 04:25:44;;;;;;;30.42;18.67;;;;;;;;;;4803966;29;20050;-72
2022/08/23 04:28:10;;;;;;;38.50;19.27;;;;;;;;;;4789412;29;20121;-72
2022/08/23 04:30:36;;;;;;;34.70;19.55;;;17.20;99.90;;;;;;4804226;29;20043;-72
2022/08/23 04:33:03;;;;;;;37.78;18.90;;;;;;;;;;4804251;29;20043;-72
2022/08/23 04:35:29;;;;;;;30.92;19.52;;;;;;;;;;4788909;29;20121;-72
2022/08/23 04:37:55;;;;;;;38.78;19.45;;;;;;;;;;4803890;29;20051;-72
2022/08/23 04:43:07;;;;;;;36.92;19.27;;;;;;;;;;4802796;29;20089;-72
2022/08/23 04:45:36;;;;;;;35.45;19.90;;;17.10;99.90;;;;;;4803760;29;20080;-72
2022/08/23 04:48:02;;;;;;;35.80;19.75;;;18.20;99.90;;;;;;4801794;29;20039;-72
2022/08/23 04:50:28;;;;;;;38.33;19.48;;;16.20;99.90;;;;;;4803905;29;20484;-72
2022/08/23 04:52:53;;;;;;;34.13;20.23;;;18.20;99.90;;;;;;4803552;29;20081;-71
2022/08/23 04:55:19;;;;;;;41.47;21.33;;;;;;;;;;4805925;29;20108;-73
2022/08/23 04:57:45;;;;;;;37.88;22.20;;;;;;;;;;4803740;29;20432;-73
2022/08/23 05:00:13;;;;;;;42.92;20.92;;;17.90;99.90;;;;;;4803914;29;20089;-71
2022/08/23 05:02:39;;;;;;;41.55;20.92;;;16.60;99.90;;;;;;4821462;29;20042;-71
2022/08/23 05:05:06;;;;;;;37.08;21.45;;;16.20;99.90;;;;;;4803630;29;20061;-75
2022/08/23 05:07:32;;;;;;;45.33;21.15;;;;;;;;;;4803981;29;20153;-71
2022/08/23 05:09:58;;;;;;;29.40;17.52;;;;;;;;;;4803976;29;20050;-74
2022/08/23 05:12:24;;;;;;;36.53;19.60;;;;;;;;;;4807458;29;20047;-77
2022/08/23 05:14:51;;;;;;;39.78;20.02;;;;;;;;;;4807217;29;20039;-75
2022/08/23 05:17:17;;;;;;;37.10;20.83;;;;;;;;;;4807291;29;20050;-75
2022/08/23 05:19:43;;;;;;;40.95;23.00;;;;;;;;;;4807351;29;20050;-74
2022/08/23 05:22:09;;;;;;;40.80;21.63;;;16.90;99.90;;;;;;4792224;29;20035;-75
2022/08/23 05:24:35;;;;;;;37.42;21.20;;;;;;;;;;4807138;29;20054;-75
2022/08/23 05:27:01;;;;;;;37.92;21.70;;;;;;;;;;4792187;29;20042;-77
2022/08/23 05:29:27;;;;;;;41.33;20.95;;;17.00;99.90;;;;;;4791908;29;20039;-75
2022/08/23 05:31:53;;;;;;;39.63;22.35;;;;;;;;;;4792292;29;20054;-75
2022/08/23 05:34:19;;;;;;;37.08;21.63;;;;;;;;;;4806827;29;20049;-75
2022/08/23 05:36:45;;;;;;;44.83;23.13;;;;;;;;;;4807110;29;20043;-72
2022/08/23 05:39:11;;;;;;;42.83;22.05;;;;;;;;;;4806538;29;20046;-73
2022/08/23 05:41:39;;;;;;;50.22;24.38;;;;;;;;;;4807047;29;20079;-71
2022/08/23 05:44:05;;;;;;;44.42;24.33;;;;;;;;;;4813166;29;20081;-71
2022/08/23 05:46:32;;;;;;;47.92;24.88;;;18.80;99.90;;;;;;4819555;29;20107;-71
2022/08/23 05:48:58;;;;;;;39.45;22.73;;;;;;;;;;4798692;29;20042;-71
2022/08/23 05:51:26;;;;;;;46.30;23.58;;;17.80;99.90;;;;;;4807802;29;20038;-70
2022/08/23 05:53:54;;;;;;;45.75;23.88;;;17.90;99.90;;;;;;4837502;29;20035;-71
2022/08/23 05:56:23;;;;;;;46.38;24.35;;;17.60;99.90;;;;;;4807295;29;20051;-71
2022/08/23 05:58:51;;;;;;;40.30;23.10;;;17.90;99.90;;;;;;4789540;29;20539;-71
2022/08/23 06:01:18;;;;;;;42.83;23.63;;;17.90;99.90;;;;;;4806608;29;20043;-71
2022/08/23 06:03:45;;;;;;;40.17;23.10;;;;;;;;;;4834896;29;20130;-72
2022/08/23 06:06:12;;;;;;;46.10;23.25;;;18.70;99.90;;;;;;4806231;29;20051;-72
2022/08/23 06:08:39;;;;;;;42.40;22.42;;;18.10;99.90;;;;;;4806483;29;20381;-71
2022/08/23 06:11:18;;;;;;;43.60;22.42;;;18.00;99.90;;;;;;4806442;29;20126;-71
2022/08/23 06:14:05;;;;;;;42.08;22.63;;;18.00;99.90;;;;;;4805437;29;20096;-72
2022/08/23 06:16:34;;;;;;;45.67;24.63;;;18.20;99.90;;;;;;4805772;29;20053;-72
2022/08/23 06:19:01;;;;;;;49.33;24.63;;;18.00;99.90;;;;;;4804561;29;20047;-72
2022/08/23 06:21:28;;;;;;;63.88;25.13;;;18.30;99.90;;;;;;4805998;29;20051;-72
2022/08/23 06:23:54;;;;;;;37.72;23.08;;;;;;;;;;4804708;29;20046;-72
2022/08/23 06:26:24;;;;;;;44.25;22.70;;;19.00;99.90;;;;;;4790051;29;20092;-72
2022/08/23 06:28:51;;;;;;;42.17;23.80;;;;;;;;;;4805969;29;20051;-72
2022/08/23 06:31:44;;;;;;;44.70;24.10;;;18.20;99.90;;;;;;4804879;29;20066;-72
2022/08/23 06:34:06;;;;;;;44.80;24.60;;;17.30;99.90;;;;;;4805956;29;20092;-71
2022/08/23 06:36:32;;;;;;;37.08;23.17;;;19.20;99.90;;;;;;4832807;29;20197;-72
2022/08/23 06:38:58;;;;;;;44.92;26.30;;;18.80;99.90;;;;;;4806081;29;20047;-72
2022/08/23 06:41:24;;;;;;;42.78;25.80;;;18.70;99.90;;;;;;4827463;29;20053;-72
2022/08/23 06:43:50;;;;;;;46.60;26.05;;;;;;;;;;4805789;29;20078;-73
2022/08/23 06:46:27;;;;;;;46.83;25.08;;;19.30;99.90;;;;;;4790508;29;20046;-72
2022/08/23 06:48:53;;;;;;;42.63;25.27;;;;;;;;;;4807828;29;20051;-72
2022/08/23 06:51:29;;;;;;;40.08;21.95;;;17.60;99.90;;;;;;4805660;29;20100;-74
2022/08/23 06:53:57;;;;;;;44.95;23.35;;;19.00;99.90;;;;;;4805718;29;20054;-72
2022/08/23 06:56:24;;;;;;;40.20;23.63;;;18.90;99.90;;;;;;4804449;29;20042;-72
2022/08/23 06:58:51;;;;;;;44.25;24.30;;;18.30;99.90;;;;;;4835106;29;20055;-72
2022/08/23 07:01:31;;;;;;;42.30;23.77;;;19.10;99.90;;;;;;4830183;29;20237;-72
2022/08/23 07:03:58;;;;;;;43.22;23.73;;;19.10;99.90;;;;;;4804912;29;20129;-72
2022/08/23 07:06:27;;;;;;;43.25;22.80;;;19.40;99.90;;;;;;4802069;29;20440;-72
2022/08/23 07:08:53;;;;;;;45.75;24.67;;;;;;;;;;4834810;29;20049;-73
2022/08/23 07:11:20;;;;;;;37.13;22.02;;;19.10;99.90;;;;;;4805191;29;20035;-72
2022/08/23 07:13:46;;;;;;;49.70;22.15;;;;;;;;;;4805531;29;20051;-72
2022/08/23 07:16:14;;;;;;;39.15;23.60;;;19.40;99.90;;;;;;4805209;29;20049;-73
2022/08/23 07:18:40;;;;;;;36.78;20.58;;;19.90;99.90;;;;;;4835340;29;20107;-72
2022/08/23 07:21:06;;;;;;;37.45;21.40;;;;;;;;;;4817318;29;20062;-72
2022/08/23 07:23:34;;;;;;;43.60;22.17;;;19.20;99.90;;;;;;4805066;29;20046;-73
2022/08/23 07:26:07;;;;;;;33.08;20.33;;;19.50;99.90;;;;;;4834011;29;20136;-72
2022/08/23 07:28:33;;;;;;;36.33;22.38;;;20.30;99.90;;;;;;4805303;29;20122;-73
2022/08/23 07:31:10;;;;;;;36.95;20.83;;;18.60;99.90;;;;;;4804941;29;20528;-72
2022/08/23 07:33:37;;;;;;;35.83;20.40;;;19.50;99.90;;;;;;4822095;29;20066;-72
2022/08/23 07:36:04;;;;;;;39.33;19.83;;;20.30;99.90;;;;;;4803907;29;20059;-72
2022/08/23 07:38:30;;;;;;;36.90;19.10;;;19.80;99.90;;;;;;4834711;29;20049;-73
2022/08/23 07:40:57;;;;;;;31.00;18.73;;;;;;;;;;4805160;29;20046;-72
2022/08/23 07:43:23;;;;;;;30.27;18.27;;;20.30;99.90;;;;;;4805370;29;20123;-73
2022/08/23 07:45:49;;;;;;;33.25;17.48;;;19.70;99.90;;;;;;4805169;29;20520;-73
2022/08/23 07:48:15;;;;;;;26.63;17.17;;;20.40;99.90;;;;;;4805074;29;20047;-73
2022/08/23 07:50:41;;;;;;;29.90;17.23;;;20.20;99.90;;;;;;4804836;29;20083;-73
2022/08/23 07:53:07;;;;;;;30.13;16.52;;;20.30;99.90;;;;;;4789545;29;20035;-72
2022/08/23 07:55:34;;;;;;;26.73;15.55;;;;;;;;;;4804410;29;20042;-72
2022/08/23 07:58:00;;;;;;;29.17;17.45;;;;;;;;;;4804897;29;20064;-72
2022/08/23 08:00:26;;;;;;;28.48;17.65;;;19.60;99.90;;;;;;4790074;29;20055;-72
2022/08/23 08:02:52;;;;;;;33.90;18.27;;;20.20;99.90;;;;;;4804819;29;20046;-72
2022/08/23 08:05:18;;;;;;;29.33;17.35;;;;;;;;;;4804435;29;20055;-72
2022/08/23 08:07:44;;;;;;;33.38;18.60;;;;;;;;;;4804301;29;20103;-72
2022/08/23 08:10:11;;;;;;;27.17;17.10;;;;;;;;;;4804620;29;20046;-73
2022/08/23 08:12:36;;;;;;;38.88;19.05;;;21.60;99.90;;;;;;4804555;29;20042;-72
2022/08/23 08:15:03;;;;;;;38.63;18.67;;;;;;;;;;4789904;29;20134;-72
2022/08/23 08:17:29;;;;;;;29.92;18.23;;;;;;;;;;4804575;29;20518;-72
2022/08/23 08:19:55;;;;;;;30.85;18.38;;;20.80;99.90;;;;;;4789827;29;20049;-72
2022/08/23 08:22:21;;;;;;;32.33;17.52;;;;;;;;;;4804412;29;20050;-72
2022/08/23 08:24:47;;;;;;;37.17;19.05;;;;;;;;;;4804669;29;20086;-72
2022/08/23 08:27:13;;;;;;;43.95;21.40;;;21.60;99.90;;;;;;4804486;29;20043;-73
2022/08/23 08:29:40;;;;;;;32.50;19.30;;;21.30;98.50;;;;;;4804111;29;20481;-72
2022/08/23 08:32:07;;;;;;;33.97;19.10;;;21.50;99.90;;;;;;4805133;29;20114;-72
2022/08/23 08:34:33;;;;;;;32.85;18.92;;;;;;;;;;4806316;29;20101;-72
2022/08/23 08:36:59;;;;;;;31.52;17.25;;;22.00;99.90;;;;;;4804757;29;20109;-72
2022/08/23 08:39:29;;;;;;;29.38;17.10;;;22.30;99.90;;;;;;4804335;29;20054;-72
2022/08/23 08:42:03;;;;;;;40.67;17.25;;;22.40;99.90;;;;;;4804256;29;20050;-73
2022/08/23 08:44:48;;;;;;;28.33;17.02;;;22.40;98.80;;;;;;4787846;29;20455;-72
2022/08/23 08:47:17;;;;;;;30.92;17.85;;;21.80;99.90;;;;;;4789154;29;20086;-72
2022/08/23 08:50:05;;;;;;;35.22;18.13;;;22.00;99.00;;;;;;4801842;29;20086;-73
2022/08/23 08:53:08;;;;;;;26.75;16.48;;;22.30;99.90;;;;;;4808946;29;20042;-72
2022/08/23 08:55:44;;;;;;;25.65;16.17;;;22.90;99.90;;;;;;4769896;29;20512;-73
2022/08/23 08:58:36;;;;;;;25.00;15.73;;;22.20;99.90;;;;;;4799303;29;20095;-73
2022/08/23 09:01:02;;;;;;;30.07;16.67;;;21.70;99.90;;;;;;4794776;29;20134;-73
2022/08/23 09:03:33;;;;;;;35.05;16.83;;;22.30;97.20;;;;;;4802532;29;20138;-73
2022/08/23 09:06:14;;;;;;;30.42;16.58;;;23.10;99.90;;;;;;4802492;29;20076;-73
2022/08/23 09:08:57;;;;;;;31.73;16.30;;;22.20;99.90;;;;;;4785042;29;20047;-73
2022/08/23 09:11:29;;;;;;;26.52;16.65;;;22.60;96.10;;;;;;4820968;29;20078;-73
2022/08/23 09:14:13;;;;;;;32.10;16.65;;;22.50;96.00;;;;;;4800265;29;20050;-73
2022/08/23 09:17:04;;;;;;;30.00;16.08;;;23.40;99.90;;;;;;4802349;29;20043;-73
2022/08/23 09:19:33;;;;;;;31.90;17.13;;;23.20;96.70;;;;;;4819808;29;20488;-73
2022/08/23 09:22:27;;;;;;;22.60;15.57;;;22.80;99.90;;;;;;4815529;29;20146;-73
2022/08/23 09:24:52;;;;;;;38.78;17.30;;;23.40;99.90;;;;;;4823250;29;20082;-72
2022/08/23 09:27:19;;;;;;;30.75;17.98;;;;;;;;;;4823247;29;20485;-73
2022/08/23 09:29:57;;;;;;;32.95;16.90;;;23.10;99.90;;;;;;4823056;29;20125;-73
2022/08/23 09:32:32;;;;;;;28.33;16.58;;;23.70;99.90;;;;;;4821238;29;20107;-73
2022/08/23 09:35:20;;;;;;;29.38;17.75;;;23.90;99.90;;;;;;4789776;29;20488;-73
2022/08/23 09:37:54;;;;;;;27.42;16.95;;;23.40;98.40;;;;;;4804660;29;20065;-73
2022/08/23 09:40:43;;;;;;;34.92;16.00;;;23.60;97.20;;;;;;4805415;29;20054;-73
2022/08/23 09:43:18;;;;;;;42.65;16.98;;;23.40;97.00;;;;;;4805307;29;20043;-73
2022/08/23 09:45:47;;;;;;;37.20;15.15;;;23.70;99.40;;;;;;4804765;29;20067;-74
2022/08/23 09:48:30;;;;;;;29.10;15.68;;;24.40;98.20;;;;;;4798776;29;20043;-73
2022/08/23 09:51:22;;;;;;;37.25;14.63;;;24.00;94.60;;;;;;4784767;29;20039;-74
2022/08/23 09:53:52;;;;;;;31.38;16.58;;;24.10;94.50;;;;;;4799187;29;20075;-74
2022/08/23 09:56:26;;;;;;;30.55;18.05;;;24.20;93.10;;;;;;4830085;29;20058;-74
2022/08/23 09:58:53;;;;;;;25.00;15.65;;;24.00;97.10;;;;;;4787800;29;20067;-74
2022/08/23 10:01:26;;;;;;;28.17;15.32;;;23.90;98.50;;;;;;4805109;29;20118;-73
2022/08/23 10:04:14;;;;;;;27.70;16.00;;;24.40;93.70;;;;;;4788696;29;20043;-73
2022/08/23 10:06:42;;;;;;;32.95;15.13;;;25.00;96.00;;;;;;4803296;29;20047;-73
2022/08/23 10:09:20;;;;;;;27.63;15.30;;;23.80;97.40;;;;;;4802730;29;20109;-71
2022/08/23 10:11:46;;;;;;;30.58;15.75;;;;;;;;;;4802375;29;20089;-73
2022/08/23 10:14:18;;;;;;;34.75;17.08;;;25.10;92.80;;;;;;4802820;29;20141;-72
2022/08/23 10:16:50;;;;;;;28.08;16.50;;;24.70;91.60;;;;;;4788875;29;20043;-71
2022/08/23 10:19:24;;;;;;;29.90;15.65;;;25.10;97.20;;;;;;4809297;29;20054;-72
2022/08/23 10:21:57;;;;;;;27.42;16.13;;;25.10;91.70;;;;;;4811759;29;20504;-73
2022/08/23 10:24:39;;;;;;;32.42;16.05;;;25.20;91.50;;;;;;4798434;29;20046;-72
2022/08/23 10:30:26;;;;;;;26.45;15.02;;;25.40;91.70;;;;;;4812652;29;20059;-72
2022/08/23 10:32:52;;;;;;;;;;;25.30;92.10;;;;;;4805662;29;20472;-72
2022/08/23 10:35:47;;;;;;;31.60;14.63;;;25.60;92.30;;;;;;4817464;29;19929;-72
2022/08/23 10:38:31;;;;;;;34.80;17.48;;;25.20;95.40;;;;;;4803881;29;20043;-74
2022/08/23 10:41:19;;;;;;;28.85;14.40;;;25.40;89.20;;;;;;4819682;29;20129;-73
2022/08/23 10:44:13;;;;;;;30.65;13.95;;;26.10;94.10;;;;;;4787628;29;20050;-72
2022/08/23 10:46:47;;;;;;;33.42;16.23;;;25.40;95.30;;;;;;4807927;29;20061;-72
2022/08/23 10:49:15;;;;;;;28.23;16.40;;;25.30;94.40;;;;;;4802712;29;20127;-72
2022/08/23 10:51:47;;;;;;;42.22;19.70;;;26.40;94.30;;;;;;4802268;29;20047;-74
2022/08/23 10:54:33;;;;;;;32.55;15.40;;;26.30;89.60;;;;;;4800103;29;20070;-73
2022/08/23 10:57:00;;;;;;;36.17;16.05;;;26.10;88.60;;;;;;4802284;29;20434;-73
2022/08/23 10:59:27;;;;;;;35.42;17.33;;;26.50;94.50;;;;;;4801971;29;20516;-73
2022/08/23 11:02:14;;;;;;;35.78;18.00;;;26.50;88.90;;;;;;4827719;29;21433;-73
2022/08/23 11:05:01;;;;;;;26.88;14.88;;;26.40;86.60;;;;;;4802678;29;20053;-73
2022/08/23 11:07:33;;;;;;;32.90;13.90;;;26.60;88.00;;;;;;4798820;29;20511;-73
2022/08/23 11:10:04;;;;;;;27.27;13.88;;;26.50;85.30;;;;;;4801853;29;20373;-74
2022/08/23 11:12:50;;;;;;;38.30;14.10;;;26.90;84.80;;;;;;4786983;29;20050;-73
2022/08/23 11:15:50;;;;;;;29.92;15.48;;;26.80;92.30;;;;;;4802401;29;20038;-73
2022/08/23 11:18:25;;;;;;;28.55;13.30;;;27.30;90.80;;;;;;4798335;29;20408;-74
2022/08/23 11:20:54;;;;;;;20.83;12.48;;;;;;;;;;4804775;29;20058;-74
2022/08/23 11:23:42;;;;;;;21.50;10.52;;;27.20;92.30;;;;;;4801799;29;20043;-73
2022/08/23 11:26:35;;;;;;;27.05;12.55;;;26.60;92.10;;;;;;4802042;29;20111;-74
2022/08/23 11:29:06;;;;;;;27.33;12.07;;;27.00;80.90;;;;;;4801791;29;20163;-74
2022/08/23 11:31:34;;;;;;;;;;;27.20;84.30;;;;;;4802929;29;20123;-75
2022/08/23 11:34:18;;;;;;;21.73;12.00;;;27.30;91.60;;;;;;4787053;29;19970;-74
2022/08/23 11:37:19;;;;;;;24.08;11.68;;;27.40;82.10;;;;;;4801877;29;20393;-74
2022/08/23 11:39:57;;;;;;;22.45;9.82;;;27.70;91.30;;;;;;4794378;29;20072;-75
2022/08/23 11:42:47;;;;;;;23.05;10.73;;;27.50;90.90;;;;;;4800165;29;20053;-75
2022/08/23 11:45:42;;;;;;;27.02;10.50;;;27.90;87.60;;;;;;4805029;29;20515;-74
2022/08/23 11:48:26;;;;;;;26.33;10.57;;;27.70;90.50;;;;;;4836334;29;20099;-74
2022/08/23 11:51:10;;;;;;;27.95;10.57;;;27.60;90.40;;;;;;4804880;29;20051;-74
2022/08/23 11:53:48;;;;;;;30.60;11.30;;;27.80;90.50;;;;;;4805817;29;20047;-74
2022/08/23 11:56:31;;;;;;;26.25;9.63;;;27.70;90.20;;;;;;4805813;29;20126;-75
2022/08/23 11:59:28;;;;;;;24.40;11.50;;;27.50;79.90;;;;;;4836154;29;20484;-74
2022/08/23 12:01:55;;;;;;;21.88;10.65;;;27.70;80.20;;;;;;4805891;29;20577;-74
2022/08/23 12:04:36;;;;;;;19.67;9.88;;;27.60;90.20;;;;;;4805839;29;20138;-74
2022/08/23 12:07:10;;;;;;;21.43;10.00;;;27.40;89.60;;;;;;4836222;29;20125;-75
2022/08/23 12:09:39;;;;;;;24.88;9.60;;;28.00;89.50;;;;;;4835830;29;20500;-75
2022/08/23 12:12:12;;;;;;;34.47;10.98;;;28.10;89.00;;;;;;4805718;29;20057;-74
2022/08/23 12:14:40;;;;;;;24.73;9.60;;;27.90;88.90;;;;;;4836096;29;20488;-75
2022/08/23 12:17:12;;;;;;;22.90;9.80;;;28.00;88.10;;;;;;4805571;29;20053;-74
2022/08/23 12:19:42;;;;;;;33.53;8.75;;;28.30;88.20;;;;;;4805261;29;20179;-75
2022/08/23 12:22:16;;;;;;;22.27;8.10;;;28.40;84.10;;;;;;4836004;29;20243;-75
2022/08/23 12:24:55;;;;;;;23.15;9.13;;;28.50;76.90;;;;;;4835937;29;20042;-75
2022/08/23 12:27:31;;;;;;;21.88;8.20;;;28.60;86.70;;;;;;4835675;29;20086;-74
2022/08/23 12:30:08;;;;;;;29.83;8.85;;;28.30;86.50;;;;;;4805500;29;20046;-74
2022/08/23 12:32:55;;;;;;;25.25;8.70;;;27.90;76.10;;;;;;4805550;29;20074;-75
2022/08/23 12:35:48;;;;;;;20.65;8.27;;;28.70;86.20;;;;;;4835662;29;20063;-75
2022/08/23 12:38:17;;;;;;;21.95;9.20;;;28.60;85.90;;;;;;4790331;29;20046;-74
2022/08/23 12:40:46;;;;;;;19.63;8.25;;;28.80;85.30;;;;;;4805331;29;20046;-75
2022/08/23 12:43:12;;;;;;;22.50;9.27;;;28.70;84.30;;;;;;4835815;29;20125;-75
2022/08/23 12:45:54;;;;;;;17.90;7.82;;;28.80;84.50;;;;;;4805252;29;20200;-75
2022/08/23 12:48:23;;;;;;;19.35;9.05;;;28.50;83.70;;;;;;4835535;29;20078;-74
2022/08/23 12:50:56;;;;;;;22.88;7.75;;;29.20;83.10;;;;;;4835565;29;20043;-75
2022/08/23 12:53:35;;;;;;;24.77;7.80;;;28.90;82.40;;;;;;4805111;29;20081;-75
2022/08/23 12:56:07;;;;;;;27.60;7.63;;;29.00;82.50;;;;;;4805316;29;20430;-74
2022/08/23 12:58:36;;;;;;;23.83;8.50;;;29.00;73.00;;;;;;4805049;29;20116;-74
2022/08/23 13:01:07;;;;;;;20.02;8.65;;;29.30;82.30;;;;;;4805160;29;20054;-75
2022/08/23 13:03:40;;;;;;;19.15;7.95;;;29.30;82.00;;;;;;4835323;29;20054;-75
2022/08/23 13:06:08;;;;;;;21.20;7.40;;;29.20;81.10;;;;;;4790233;29;20051;-75
2022/08/23 13:08:40;;;;;;;24.42;8.32;;;28.80;80.50;;;;;;4804904;29;20047;-75
2022/08/23 13:11:08;;;;;;;23.83;8.30;;;29.50;76.40;;;;;;4820185;29;20046;-70
2022/08/23 13:13:37;;;;;;;18.65;7.72;;;29.30;71.10;;;;;;4835253;29;20043;-70
2022/08/23 13:16:22;;;;;;;18.88;7.68;;;29.70;81.20;;;;;;4804797;29;20046;-70
2022/08/23 13:18:48;;;;;;;18.30;7.05;;;29.40;81.20;;;;;;4804900;29;20138;-70
2022/08/23 13:21:17;;;;;;;22.42;7.38;;;29.10;68.50;;;;;;4835205;29;20134;-70
2022/08/23 13:23:45;;;;;;;15.30;7.25;;;29.80;81.10;;;;;;4804746;29;20046;-69
2022/08/23 13:26:35;;;;;;;19.63;7.40;;;29.80;79.20;;;;;;4834991;29;20051;-69
2022/08/23 13:29:27;;;;;;;23.23;8.30;;;29.80;80.70;;;;;;4804896;29;20074;-69